Time;durP1;ratioP1;P1;durP2;ratioP2;P2;SDS_P1;SDS_P2;PMS_P1;PMS_P2;Temp;Humidity;BMP_temperature;BMP_pressure;BME280_temperature;BME280_humidity;BME280_pressure;Samples;Min_cycle;Max_cycle;Signal;HPM_P1;HPM_P2
2022/03/11 00:01:49;;;;;;;11.95;6.50;;;9.80;58.00;;;;;;5058547;28;20151;-62
2022/03/11 00:04:16;;;;;;;14.63;6.45;;;9.70;58.00;;;;;;5061688;28;20032;-62
2022/03/11 00:06:41;;;;;;;13.77;6.35;;;9.70;58.10;;;;;;5039336;28;20029;-62
2022/03/11 00:09:07;;;;;;;19.50;7.70;;;9.80;58.40;;;;;;5049054;28;20028;-62
2022/03/11 00:11:33;;;;;;;21.15;6.43;;;9.80;58.30;;;;;;5040758;28;20511;-62
2022/03/11 00:13:59;;;;;;;17.27;6.60;;;9.80;58.50;;;;;;5056901;28;20029;-62
2022/03/11 00:16:24;;;;;;;19.15;6.75;;;9.70;58.70;;;;;;5058205;28;20500;-62
2022/03/11 00:18:50;;;;;;;16.30;7.32;;;9.80;58.50;;;;;;5056987;28;20458;-62
2022/03/11 00:21:16;;;;;;;15.55;6.70;;;9.70;58.40;;;;;;5049317;28;20017;-63
2022/03/11 00:23:42;;;;;;;15.57;6.75;;;9.80;58.50;;;;;;5045466;28;20366;-62
2022/03/11 00:26:09;;;;;;;17.05;6.93;;;9.80;59.00;;;;;;5056949;28;20032;-62
2022/03/11 00:28:36;;;;;;;14.15;6.70;;;9.80;58.50;;;;;;5053956;28;20569;-62
2022/03/11 00:31:04;;;;;;;14.18;6.78;;;9.70;58.80;;;;;;5061719;28;20061;-62
2022/03/11 00:33:30;;;;;;;19.30;8.23;;;9.70;59.40;;;;;;5059552;28;20028;-62
2022/03/11 00:35:56;;;;;;;20.58;7.57;;;9.70;59.20;;;;;;5053231;28;20021;-62
2022/03/11 00:38:22;;;;;;;19.83;7.80;;;9.70;58.90;;;;;;5059957;28;20060;-62
2022/03/11 00:40:48;;;;;;;16.73;7.22;;;9.70;59.00;;;;;;5064667;28;20482;-62
2022/03/11 00:43:13;;;;;;;21.90;7.53;;;9.70;59.30;;;;;;5062844;28;20056;-62
2022/03/11 00:45:39;;;;;;;16.83;7.07;;;9.80;59.30;;;;;;5059545;28;20437;-62
2022/03/11 00:48:05;;;;;;;19.40;8.40;;;9.70;59.10;;;;;;5059993;28;20025;-62
2022/03/11 00:50:30;;;;;;;16.08;7.85;;;9.70;59.10;;;;;;5060863;28;20020;-62
2022/03/11 00:52:56;;;;;;;17.58;7.43;;;9.70;59.10;;;;;;5053060;28;20101;-62
2022/03/11 00:55:22;;;;;;;22.90;8.50;;;9.70;59.20;;;;;;5046975;28;20115;-62
2022/03/11 00:57:47;;;;;;;16.05;8.35;;;9.70;59.70;;;;;;5060568;28;20029;-62
2022/03/11 01:00:14;;;;;;;27.42;9.25;;;9.70;59.50;;;;;;5045369;28;20060;-62
2022/03/11 01:02:39;;;;;;;24.67;9.32;;;9.70;59.40;;;;;;5068463;28;20025;-62
2022/03/11 01:05:07;;;;;;;21.02;10.20;;;9.70;59.40;;;;;;5052003;28;20094;-63
2022/03/11 01:07:34;;;;;;;20.45;8.10;;;9.70;59.40;;;;;;5055424;28;20033;-62
2022/03/11 01:10:00;;;;;;;21.48;9.32;;;9.70;59.40;;;;;;5044927;28;20024;-62
2022/03/11 01:12:25;;;;;;;25.65;9.70;;;9.70;59.80;;;;;;5050163;28;20167;-62
2022/03/11 01:14:52;;;;;;;21.60;8.43;;;9.70;59.70;;;;;;5063299;28;20431;-62
2022/03/11 01:17:17;;;;;;;20.27;8.23;;;9.70;59.80;;;;;;5038672;28;20398;-62
2022/03/11 01:19:43;;;;;;;18.23;9.02;;;9.60;59.80;;;;;;5063726;28;20040;-62
2022/03/11 01:22:09;;;;;;;25.00;10.90;;;9.60;59.90;;;;;;5058277;28;20025;-62
2022/03/11 01:24:34;;;;;;;28.42;10.15;;;9.60;59.90;;;;;;5049713;28;20021;-62
2022/03/11 01:27:00;;;;;;;21.05;9.48;;;9.60;60.10;;;;;;5044398;28;20025;-62
2022/03/11 01:29:25;;;;;;;23.40;9.40;;;9.60;59.80;;;;;;5062988;28;20471;-62
2022/03/11 01:31:52;;;;;;;26.73;8.32;;;9.60;59.80;;;;;;5051566;28;20025;-63
2022/03/11 01:34:19;;;;;;;21.75;8.57;;;9.60;60.10;;;;;;5045025;28;20031;-62
2022/03/11 01:36:45;;;;;;;25.17;9.15;;;9.60;60.20;;;;;;5055466;28;20481;-62
2022/03/11 01:39:10;;;;;;;27.33;8.45;;;9.60;59.90;;;;;;5035462;28;20028;-62
2022/03/11 01:41:36;;;;;;;19.30;7.43;;;9.60;60.10;;;;;;5060129;28;20111;-62
2022/03/11 01:44:04;;;;;;;19.42;8.00;;;9.60;60.30;;;;;;5037586;28;20025;-62
2022/03/11 01:46:30;;;;;;;19.52;8.00;;;9.60;59.90;;;;;;5055111;28;20022;-62
2022/03/11 01:48:57;;;;;;;18.70;8.77;;;9.60;60.00;;;;;;5056866;28;20464;-62
2022/03/11 01:51:23;;;;;;;21.35;8.50;;;9.60;60.00;;;;;;5058019;28;20367;-62
2022/03/11 01:53:49;;;;;;;19.88;7.95;;;9.60;60.10;;;;;;5049807;28;20071;-62
2022/03/11 01:56:15;;;;;;;21.88;8.48;;;9.60;60.10;;;;;;5052934;28;20119;-62
2022/03/11 01:58:41;;;;;;;19.55;8.20;;;9.60;60.00;;;;;;5051354;28;20022;-62
2022/03/11 02:01:08;;;;;;;17.45;8.30;;;9.60;60.10;;;;;;5061112;28;20424;-62
2022/03/11 02:03:34;;;;;;;21.85;9.23;;;9.60;60.20;;;;;;5057200;28;20081;-62
2022/03/11 02:06:04;;;;;;;22.20;8.75;;;9.60;60.50;;;;;;5057545;28;20033;-62
2022/03/11 02:08:30;;;;;;;18.90;7.78;;;9.60;60.30;;;;;;5048966;28;20021;-62
2022/03/11 02:10:56;;;;;;;16.02;7.53;;;9.60;60.30;;;;;;5052582;28;20028;-62
2022/03/11 02:13:22;;;;;;;21.27;8.85;;;9.60;60.30;;;;;;5062360;28;20017;-62
2022/03/11 02:15:48;;;;;;;15.45;8.55;;;9.50;60.20;;;;;;5040547;28;20033;-62
2022/03/11 02:18:14;;;;;;;22.50;8.30;;;9.50;61.10;;;;;;5063685;28;20102;-62
2022/03/11 02:20:39;;;;;;;21.52;8.15;;;9.50;60.50;;;;;;5033661;28;20032;-61
2022/03/11 02:23:07;;;;;;;22.20;7.38;;;9.50;60.60;;;;;;5061539;28;20103;-62
2022/03/11 02:25:32;;;;;;;14.32;6.63;;;9.50;60.40;;;;;;5037387;28;20031;-62
2022/03/11 02:27:58;;;;;;;20.00;8.13;;;9.50;60.20;;;;;;5045164;28;20025;-62
2022/03/11 02:30:24;;;;;;;20.65;9.30;;;9.50;60.40;;;;;;5059314;28;20112;-62
2022/03/11 02:32:50;;;;;;;19.65;7.60;;;9.50;61.00;;;;;;5059006;28;20119;-62
2022/03/11 02:35:17;;;;;;;21.13;6.95;;;9.50;60.60;;;;;;5061682;28;20025;-62
2022/03/11 02:37:42;;;;;;;25.50;6.82;;;9.50;60.50;;;;;;5061557;28;20401;-62
2022/03/11 02:40:09;;;;;;;18.25;7.22;;;9.50;60.40;;;;;;5046932;28;20465;-62
2022/03/11 02:42:35;;;;;;;15.38;6.60;;;9.50;61.10;;;;;;5057386;28;20025;-62
2022/03/11 02:45:02;;;;;;;14.90;6.68;;;9.50;60.90;;;;;;5057739;28;20032;-62
2022/03/11 02:47:28;;;;;;;16.20;6.82;;;9.50;60.90;;;;;;5056019;28;20080;-62
2022/03/11 02:49:53;;;;;;;17.63;6.15;;;9.50;61.10;;;;;;5035030;28;20037;-62
2022/03/11 02:52:19;;;;;;;16.88;6.43;;;9.50;60.70;;;;;;5060991;28;20337;-62
2022/03/11 02:54:45;;;;;;;14.23;6.10;;;9.50;60.50;;;;;;5041005;28;20040;-62
2022/03/11 02:57:11;;;;;;;13.88;6.90;;;9.50;60.80;;;;;;5062224;28;20454;-62
2022/03/11 02:59:36;;;;;;;16.35;6.70;;;9.50;60.60;;;;;;5040315;28;20469;-62
2022/03/11 03:02:02;;;;;;;13.85;6.32;;;9.50;60.80;;;;;;5059521;28;20029;-62
2022/03/11 03:04:28;;;;;;;14.65;7.32;;;9.50;60.60;;;;;;5056342;28;20028;-62
2022/03/11 03:06:55;;;;;;;14.93;7.30;;;9.50;61.30;;;;;;5064400;28;20097;-62
2022/03/11 03:09:21;;;;;;;13.32;6.25;;;9.50;60.90;;;;;;5038111;28;20124;-62
2022/03/11 03:11:46;;;;;;;11.77;5.15;;;9.50;60.70;;;;;;5058289;28;20052;-63
2022/03/11 03:14:12;;;;;;;11.48;5.60;;;9.50;61.00;;;;;;5053026;28;20033;-62
2022/03/11 03:16:38;;;;;;;15.48;5.68;;;9.50;60.80;;;;;;5039082;28;20017;-62
2022/03/11 03:19:41;;;;;;;15.23;5.93;;;9.50;61.10;;;;;;5015413;28;20025;-62
2022/03/11 03:22:07;;;;;;;21.17;5.78;;;9.50;60.80;;;;;;5026996;28;20025;-62
2022/03/11 03:24:33;;;;;;;11.65;5.28;;;9.40;61.10;;;;;;5056990;28;20137;-61
2022/03/11 03:26:58;;;;;;;12.13;5.35;;;9.40;60.70;;;;;;5057120;28;20036;-62
2022/03/11 03:29:24;;;;;;;14.45;5.10;;;9.40;60.40;;;;;;5056876;28;20030;-62
2022/03/11 03:31:57;;;;;;;10.63;4.68;;;9.40;60.50;;;;;;5028656;28;20040;-62
2022/03/11 03:34:33;;;;;;;12.65;5.07;;;9.40;61.00;;;;;;5037694;28;20497;-62
2022/03/11 03:37:00;;;;;;;15.88;5.07;;;9.40;61.00;;;;;;5024800;28;20068;-63
2022/03/11 03:39:26;;;;;;;20.83;7.70;;;9.40;60.60;;;;;;5058510;28;20028;-62
2022/03/11 03:41:53;;;;;;;12.73;5.07;;;9.40;60.70;;;;;;5042553;28;20033;-62
2022/03/11 03:44:19;;;;;;;14.55;4.43;;;9.40;60.50;;;;;;5061759;28;20032;-62
2022/03/11 03:46:45;;;;;;;12.55;5.43;;;9.40;60.40;;;;;;5064827;28;20036;-62
2022/03/11 03:49:10;;;;;;;10.00;4.32;;;9.40;60.50;;;;;;5042263;28;20068;-61
2022/03/11 03:51:38;;;;;;;11.90;4.70;;;9.40;60.50;;;;;;5043533;28;20036;-62
2022/03/11 03:54:04;;;;;;;9.80;4.68;;;9.40;60.60;;;;;;5056684;28;20033;-62
2022/03/11 03:56:30;;;;;;;8.73;4.15;;;9.40;60.70;;;;;;5041738;28;20032;-62
2022/03/11 03:58:55;;;;;;;11.50;4.45;;;9.40;61.00;;;;;;5055064;28;20025;-62
2022/03/11 04:01:21;;;;;;;12.10;5.25;;;9.30;60.60;;;;;;5047877;28;20060;-62
2022/03/11 04:03:47;;;;;;;11.05;4.30;;;9.30;60.80;;;;;;5061601;28;20033;-62
2022/03/11 04:06:12;;;;;;;7.03;3.80;;;9.30;60.80;;;;;;5061348;28;20111;-62
2022/03/11 04:08:38;;;;;;;10.23;4.03;;;9.30;60.60;;;;;;5064224;28;20085;-62
2022/03/11 04:11:04;;;;;;;11.80;5.18;;;9.40;61.00;;;;;;5062147;28;20056;-62
2022/03/11 04:13:29;;;;;;;11.70;4.10;;;9.30;60.60;;;;;;5059774;28;20482;-62
2022/03/11 04:15:55;;;;;;;15.20;4.90;;;9.30;60.60;;;;;;5063383;28;20039;-62
2022/03/11 04:18:21;;;;;;;10.15;4.50;;;9.40;60.40;;;;;;5045991;28;20075;-62
2022/03/11 04:20:47;;;;;;;15.68;5.10;;;9.30;60.20;;;;;;5035086;28;20033;-62
2022/03/11 04:23:13;;;;;;;12.32;4.35;;;9.30;60.20;;;;;;5060618;28;20035;-62
2022/03/11 04:25:39;;;;;;;9.45;4.50;;;9.30;60.40;;;;;;5042990;28;20025;-62
2022/03/11 04:28:05;;;;;;;8.45;4.03;;;9.30;60.20;;;;;;5049883;28;20473;-63
2022/03/11 04:30:31;;;;;;;9.90;4.57;;;9.30;60.40;;;;;;5060866;28;20021;-62
2022/03/11 04:32:57;;;;;;;8.25;4.10;;;9.30;60.00;;;;;;5049525;28;20032;-62
2022/03/11 04:35:22;;;;;;;12.40;4.50;;;9.30;60.50;;;;;;5045971;28;20572;-62
2022/03/11 04:37:48;;;;;;;9.00;3.72;;;9.30;60.50;;;;;;5064998;28;20070;-62
2022/03/11 04:40:14;;;;;;;15.00;4.22;;;9.30;60.40;;;;;;5061010;28;20390;-62
2022/03/11 04:42:40;;;;;;;8.77;3.85;;;9.30;60.20;;;;;;5063456;28;20170;-62
2022/03/11 04:45:06;;;;;;;7.35;3.53;;;9.30;60.70;;;;;;5061086;28;20541;-62
2022/03/11 04:47:32;;;;;;;7.70;3.72;;;9.30;60.40;;;;;;5060091;28;20123;-62
2022/03/11 04:49:58;;;;;;;7.18;3.00;;;9.30;60.50;;;;;;5054370;28;20168;-63
2022/03/11 04:52:24;;;;;;;7.32;3.40;;;9.30;60.30;;;;;;5045279;28;20044;-62
2022/03/11 04:54:49;;;;;;;5.55;3.17;;;9.30;60.50;;;;;;5061772;28;20038;-62
2022/03/11 04:57:15;;;;;;;7.55;3.42;;;9.30;60.20;;;;;;5060455;28;20021;-62
2022/03/11 04:59:42;;;;;;;12.05;3.50;;;9.30;60.30;;;;;;5060598;28;20036;-62
2022/03/11 05:02:07;;;;;;;9.00;3.53;;;9.30;60.10;;;;;;5067233;28;20520;-61
2022/03/11 05:04:33;;;;;;;10.10;3.42;;;9.30;60.20;;;;;;5038297;28;20029;-61
2022/03/11 05:06:59;;;;;;;7.22;3.70;;;9.30;60.40;;;;;;5060233;28;20606;-61
2022/03/11 05:09:24;;;;;;;6.70;3.30;;;9.30;60.20;;;;;;5064738;28;20032;-61
2022/03/11 05:11:50;;;;;;;10.52;3.72;;;9.20;60.20;;;;;;5037110;28;20036;-61
2022/03/11 05:14:16;;;;;;;6.35;3.33;;;9.20;60.20;;;;;;5051777;28;20025;-61
2022/03/11 05:16:41;;;;;;;10.25;3.97;;;9.30;60.20;;;;;;5062483;28;20082;-61
2022/03/11 05:19:07;;;;;;;7.90;3.58;;;9.30;60.20;;;;;;5066202;28;20393;-61
2022/03/11 05:21:33;;;;;;;10.55;3.67;;;9.30;60.30;;;;;;5062409;28;20706;-61
2022/03/11 05:23:58;;;;;;;11.13;4.60;;;9.30;60.20;;;;;;5059975;28;20090;-61
2022/03/11 05:26:28;;;;;;;7.07;2.97;;;9.30;60.20;;;;;;5058563;28;20079;-61
2022/03/11 05:28:59;;;;;;;5.22;2.75;;;9.30;60.10;;;;;;5063937;28;20037;-61
2022/03/11 05:31:26;;;;;;;6.28;3.38;;;9.30;60.30;;;;;;5066768;28;20037;-61
2022/03/11 05:33:52;;;;;;;8.02;3.63;;;9.30;60.10;;;;;;5060091;28;20078;-61
2022/03/11 05:36:18;;;;;;;6.45;2.92;;;9.30;60.90;;;;;;5042400;28;20025;-61
2022/03/11 05:38:44;;;;;;;12.30;3.78;;;9.20;60.20;;;;;;5046467;28;20136;-61
2022/03/11 05:41:10;;;;;;;15.23;3.30;;;9.20;60.20;;;;;;5064122;28;20036;-61
2022/03/11 05:43:36;;;;;;;13.52;3.42;;;9.20;60.00;;;;;;5053263;28;20014;-60
2022/03/11 05:46:02;;;;;;;8.43;3.13;;;9.20;60.10;;;;;;5065354;28;20112;-61
2022/03/11 05:48:28;;;;;;;11.65;2.90;;;9.30;60.20;;;;;;5060566;28;20024;-61
2022/03/11 05:50:54;;;;;;;6.35;3.25;;;9.20;60.30;;;;;;5058485;28;20032;-61
2022/03/11 05:53:19;;;;;;;6.95;3.92;;;9.30;60.20;;;;;;5056878;28;20481;-60
2022/03/11 05:55:45;;;;;;;6.63;2.92;;;9.30;60.10;;;;;;5058895;28;20032;-60
2022/03/11 05:58:10;;;;;;;11.35;2.92;;;9.30;60.20;;;;;;5062708;28;20550;-61
2022/03/11 06:00:36;;;;;;;6.70;3.33;;;9.30;60.50;;;;;;5060232;28;20036;-61
2022/03/11 06:03:01;;;;;;;7.70;2.92;;;9.30;60.40;;;;;;5061935;28;20098;-60
2022/03/11 06:05:27;;;;;;;9.50;2.85;;;9.30;60.20;;;;;;5055953;28;20036;-61
2022/03/11 06:07:53;;;;;;;6.63;3.35;;;9.20;60.00;;;;;;5062534;28;20029;-61
2022/03/11 06:10:18;;;;;;;13.77;3.45;;;9.30;60.20;;;;;;5063213;28;20041;-61
2022/03/11 06:12:44;;;;;;;8.50;2.97;;;9.20;60.10;;;;;;5057073;28;20033;-61
2022/03/11 06:15:14;;;;;;;8.20;3.30;;;9.20;60.10;;;;;;5059973;28;20673;-61
2022/03/11 06:17:41;;;;;;;8.63;3.50;;;9.30;60.20;;;;;;5058273;28;20547;-61
2022/03/11 06:20:09;;;;;;;10.63;3.58;;;9.30;60.40;;;;;;5066284;28;20039;-61
2022/03/11 06:22:36;;;;;;;10.35;3.70;;;9.20;60.40;;;;;;5057243;28;20355;-61
2022/03/11 06:25:03;;;;;;;9.20;3.35;;;9.30;60.50;;;;;;5056918;28;20036;-60
2022/03/11 06:27:28;;;;;;;8.82;3.38;;;9.20;60.90;;;;;;5049100;28;20028;-60
2022/03/11 06:29:54;;;;;;;6.93;3.83;;;9.30;60.10;;;;;;5040932;28;20116;-60
2022/03/11 06:32:20;;;;;;;9.00;3.35;;;9.20;61.30;;;;;;5061874;28;20032;-60
2022/03/11 06:34:48;;;;;;;9.10;3.28;;;9.20;60.60;;;;;;5056750;28;20372;-60
2022/03/11 06:37:14;;;;;;;8.13;3.03;;;9.20;59.90;;;;;;5064648;28;20032;-60
2022/03/11 06:39:41;;;;;;;8.13;3.72;;;9.20;60.20;;;;;;5058633;28;20060;-60
2022/03/11 06:42:06;;;;;;;9.68;3.67;;;9.20;59.80;;;;;;5058775;28;20039;-60
2022/03/11 06:44:32;;;;;;;14.55;3.90;;;9.20;60.10;;;;;;5056430;28;20124;-60
2022/03/11 06:46:58;;;;;;;8.63;3.67;;;9.20;60.00;;;;;;5050335;28;20445;-60
2022/03/11 06:49:23;;;;;;;9.00;3.50;;;9.20;59.70;;;;;;5058011;28;20056;-60
2022/03/11 06:51:49;;;;;;;12.20;4.07;;;9.30;60.20;;;;;;5061696;28;20111;-60
2022/03/11 06:54:15;;;;;;;7.15;3.20;;;9.40;61.00;;;;;;5067543;28;20378;-60
2022/03/11 06:56:40;;;;;;;8.68;3.35;;;9.40;60.00;;;;;;5061437;28;20025;-60
2022/03/11 06:59:06;;;;;;;12.10;3.42;;;9.50;58.90;;;;;;5030162;28;20390;-60
2022/03/11 07:01:32;;;;;;;8.30;3.65;;;9.60;59.80;;;;;;5058237;28;20059;-60
2022/03/11 07:03:58;;;;;;;6.57;3.55;;;9.60;58.60;;;;;;5062220;28;20029;-60
2022/03/11 07:06:23;;;;;;;5.53;2.70;;;9.70;58.70;;;;;;5068856;28;20064;-59
2022/03/11 07:08:49;;;;;;;7.63;3.83;;;9.70;59.00;;;;;;5070222;28;20473;-60
2022/03/11 07:11:14;;;;;;;7.05;3.80;;;9.70;59.80;;;;;;5069409;28;20025;-60
2022/03/11 07:13:40;;;;;;;9.68;3.30;;;9.70;59.10;;;;;;5062444;28;20155;-60
2022/03/11 07:16:06;;;;;;;5.28;3.15;;;9.70;58.70;;;;;;5049010;28;20060;-60
2022/03/11 07:18:31;;;;;;;9.35;3.40;;;9.80;59.20;;;;;;5049005;28;20025;-60
2022/03/11 07:20:57;;;;;;;8.45;3.10;;;9.80;59.70;;;;;;5054193;28;20037;-60
2022/03/11 07:23:23;;;;;;;7.43;3.22;;;9.80;59.50;;;;;;5049074;28;20017;-60
2022/03/11 07:25:50;;;;;;;8.40;3.30;;;9.80;58.30;;;;;;5048853;28;20481;-60
2022/03/11 07:28:15;;;;;;;12.30;3.30;;;9.90;58.70;;;;;;5048930;28;20025;-60
2022/03/11 07:30:41;;;;;;;8.57;3.33;;;10.00;59.20;;;;;;5048461;28;20070;-60
2022/03/11 07:33:09;;;;;;;14.13;3.95;;;10.10;59.70;;;;;;5048400;28;20381;-60
2022/03/11 07:35:35;;;;;;;9.93;4.53;;;10.10;59.80;;;;;;5059483;28;20081;-60
2022/03/11 07:38:00;;;;;;;10.13;4.07;;;10.10;59.30;;;;;;5069172;28;20028;-60
2022/03/11 07:40:26;;;;;;;7.40;3.30;;;10.10;58.70;;;;;;5068906;28;20078;-61
2022/03/11 07:42:52;;;;;;;9.25;3.67;;;10.10;58.90;;;;;;5069365;28;20024;-60
2022/03/11 07:45:17;;;;;;;8.75;3.22;;;10.20;58.70;;;;;;5066682;28;20024;-61
2022/03/11 07:47:44;;;;;;;5.88;3.78;;;10.20;59.00;;;;;;5049103;28;20532;-60
2022/03/11 07:50:11;;;;;;;7.68;3.90;;;10.30;59.80;;;;;;5050331;28;20304;-61
2022/03/11 07:52:37;;;;;;;17.88;4.70;;;10.20;58.90;;;;;;5048966;28;20025;-60
2022/03/11 07:55:05;;;;;;;7.20;3.50;;;10.30;58.90;;;;;;5047357;28;20100;-61
2022/03/11 07:57:32;;;;;;;10.68;4.32;;;10.30;59.00;;;;;;5049305;28;20025;-60
2022/03/11 07:59:58;;;;;;;10.60;3.70;;;10.30;59.20;;;;;;5049063;28;20039;-60
2022/03/11 08:02:23;;;;;;;8.00;4.57;;;10.30;59.30;;;;;;5047641;28;20111;-60
2022/03/11 08:04:49;;;;;;;8.40;3.78;;;10.30;59.10;;;;;;5051286;28;20141;-60
2022/03/11 08:07:14;;;;;;;9.73;5.00;;;10.40;59.70;;;;;;5069320;28;20481;-60
2022/03/11 08:09:42;;;;;;;11.50;4.20;;;10.40;58.90;;;;;;5068768;28;20043;-60
2022/03/11 08:12:08;;;;;;;8.55;3.35;;;10.40;59.30;;;;;;5036557;28;20046;-61
2022/03/11 08:14:34;;;;;;;10.82;4.32;;;10.40;61.70;;;;;;5048431;28;20064;-61
2022/03/11 08:17:00;;;;;;;10.13;4.60;;;10.40;61.10;;;;;;5047695;28;20159;-60
2022/03/11 08:19:26;;;;;;;14.63;4.68;;;10.40;61.70;;;;;;5030363;28;20029;-60
2022/03/11 08:21:52;;;;;;;11.10;5.28;;;10.40;61.90;;;;;;5047503;28;20032;-60
2022/03/11 08:24:18;;;;;;;13.63;4.43;;;10.40;61.90;;;;;;5048179;28;20029;-60
2022/03/11 08:26:45;;;;;;;8.30;3.75;;;10.40;61.60;;;;;;5049256;28;20561;-61
2022/03/11 08:29:11;;;;;;;10.48;4.60;;;10.50;61.70;;;;;;5034596;28;20121;-63
2022/03/11 08:31:37;;;;;;;13.68;4.78;;;10.50;61.40;;;;;;5044926;28;20131;-61
2022/03/11 08:34:03;;;;;;;28.38;5.78;;;10.50;60.80;;;;;;5029831;28;20478;-61
2022/03/11 08:36:29;;;;;;;10.00;5.47;;;10.40;62.10;;;;;;5042817;28;20033;-61
2022/03/11 08:38:54;;;;;;;12.15;5.20;;;10.50;60.80;;;;;;5030246;28;20033;-61
2022/03/11 08:41:22;;;;;;;15.70;5.30;;;10.50;61.70;;;;;;5049143;28;20029;-61
2022/03/11 08:43:49;;;;;;;10.93;5.22;;;10.40;61.90;;;;;;5052405;28;20112;-61
2022/03/11 08:46:15;;;;;;;15.38;5.35;;;10.50;60.50;;;;;;5052516;28;20060;-61
2022/03/11 08:48:41;;;;;;;13.70;5.50;;;10.50;59.90;;;;;;5051627;28;20065;-61
2022/03/11 08:51:07;;;;;;;12.65;6.93;;;10.60;59.80;;;;;;5060975;28;20071;-61
2022/03/11 08:53:33;;;;;;;18.65;7.00;;;10.60;60.50;;;;;;5056655;28;20068;-61
2022/03/11 08:55:58;;;;;;;10.52;4.88;;;10.60;61.70;;;;;;5051366;28;20021;-62
2022/03/11 08:58:24;;;;;;;13.60;5.65;;;10.50;61.80;;;;;;5052314;28;20497;-61
2022/03/11 09:00:50;;;;;;;14.80;6.22;;;10.50;61.40;;;;;;5052231;28;20202;-61
2022/03/11 09:03:16;;;;;;;9.05;4.65;;;10.50;61.60;;;;;;5049871;28;20032;-61
2022/03/11 09:05:41;;;;;;;11.07;4.90;;;10.50;60.80;;;;;;5049116;28;20375;-61
2022/03/11 09:08:07;;;;;;;13.25;6.00;;;10.50;61.20;;;;;;5030597;28;20064;-60
2022/03/11 09:10:34;;;;;;;15.82;6.22;;;10.50;61.70;;;;;;5050840;28;20029;-61
2022/03/11 09:13:00;;;;;;;14.88;5.68;;;10.50;62.30;;;;;;5050495;28;20037;-61
2022/03/11 09:15:26;;;;;;;13.77;5.43;;;10.60;61.50;;;;;;5034843;28;20028;-61
2022/03/11 09:17:52;;;;;;;12.13;6.22;;;10.60;61.90;;;;;;5033071;28;20021;-61
2022/03/11 09:20:17;;;;;;;17.42;5.88;;;10.50;62.70;;;;;;5033120;28;20013;-61
2022/03/11 09:22:43;;;;;;;7.40;3.50;;;10.60;62.50;;;;;;5052625;28;20493;-60
2022/03/11 09:25:10;;;;;;;15.38;4.82;;;10.60;62.80;;;;;;5050686;28;20021;-61
2022/03/11 09:27:36;;;;;;;9.32;4.90;;;10.60;63.10;;;;;;5051004;28;20017;-61
2022/03/11 09:30:03;;;;;;;10.77;5.18;;;10.60;63.40;;;;;;5050937;28;20039;-61
2022/03/11 09:32:29;;;;;;;18.35;5.20;;;10.60;62.10;;;;;;5049355;28;20478;-64
2022/03/11 09:34:55;;;;;;;9.38;4.93;;;10.60;62.40;;;;;;5051476;28;20035;-61
2022/03/11 09:39:46;;;;;;;9.40;4.45;;;10.60;64.00;;;;;;5044517;23;20057;-64
2022/03/11 09:42:12;;;;;;;11.05;5.38;;;10.60;65.20;;;;;;5029166;28;20040;-65
2022/03/11 09:44:40;;;;;;;11.68;5.20;;;10.60;62.60;;;;;;5031381;28;20037;-64
2022/03/11 09:47:07;;;;;;;10.90;5.03;;;10.70;62.50;;;;;;5030930;28;20033;-65
2022/03/11 09:49:35;;;;;;;9.38;4.43;;;10.70;62.50;;;;;;5031450;28;20026;-64
2022/03/11 09:52:05;;;;;;;11.77;5.68;;;10.70;63.90;;;;;;5029804;28;20030;-65
2022/03/11 09:54:31;;;;;;;;;;;10.70;62.70;;;;;;5030538;28;20707;-64
2022/03/11 09:56:57;;;;;;;10.18;5.38;;;10.80;62.50;;;;;;5031444;28;20180;-64
2022/03/11 09:59:23;;;;;;;10.32;5.03;;;10.80;63.30;;;;;;5031159;28;20032;-64
2022/03/11 10:01:49;;;;;;;11.50;4.97;;;10.80;63.50;;;;;;5030527;28;20026;-64
2022/03/11 10:04:15;;;;;;;9.73;4.00;;;10.80;64.30;;;;;;5031158;28;20108;-64
2022/03/11 10:06:46;;;;;;;9.13;4.65;;;10.90;62.60;;;;;;5015237;28;20483;-64
2022/03/11 10:09:17;;;;;;;15.43;5.28;;;10.90;62.70;;;;;;5016570;28;20049;-64
2022/03/11 10:11:45;;;;;;;13.52;5.63;;;10.90;62.10;;;;;;5030549;28;20104;-64
2022/03/11 10:14:11;;;;;;;3.92;1.83;;;10.90;62.20;;;;;;5029147;28;20041;-64
2022/03/11 10:16:37;;;;;;;10.70;6.40;;;10.90;61.40;;;;;;5029222;28;20030;-64
2022/03/11 10:19:07;;;;;;;13.88;5.43;;;11.00;62.30;;;;;;5019302;28;20030;-64
2022/03/11 10:21:33;;;;;;;;;;;11.00;61.50;;;;;;5023803;28;20030;-64
2022/03/11 10:24:01;;;;;;;11.15;5.03;;;11.00;62.50;;;;;;5025564;28;19909;-65
2022/03/11 10:26:46;;;;;;;12.27;5.22;;;11.00;63.00;;;;;;5030426;28;20238;-64
2022/03/11 10:29:18;;;;;;;9.60;4.47;;;11.00;62.80;;;;;;5030351;28;20105;-64
2022/03/11 10:31:46;;;;;;;10.80;5.20;;;11.00;63.20;;;;;;5029838;28;20430;-64
2022/03/11 10:34:29;;;;;;;12.95;5.97;;;11.00;63.30;;;;;;5030146;28;20033;-64
2022/03/11 10:37:02;;;;;;;10.23;5.20;;;11.10;63.80;;;;;;5030624;28;20033;-64
2022/03/11 10:39:30;;;;;;;15.82;5.10;;;11.10;62.90;;;;;;5023908;28;20029;-64
2022/03/11 10:42:43;;;;;;;14.95;6.38;;;11.10;63.60;;;;;;5012899;28;20075;-63
2022/03/11 10:45:09;;;;;;;11.00;4.00;;;11.10;63.80;;;;;;5012638;28;20022;-64
2022/03/11 10:47:36;;;;;;;18.10;6.88;;;11.10;62.20;;;;;;5010455;28;20100;-64
2022/03/11 10:50:08;;;;;;;11.63;6.68;;;11.20;63.70;;;;;;5025238;28;20025;-64
2022/03/11 10:52:45;;;;;;;12.20;4.22;;;11.20;64.00;;;;;;5030079;28;20398;-64
2022/03/11 10:55:28;;;;;;;4.88;2.85;;;11.30;61.80;;;;;;5049396;28;20036;-64
2022/03/11 10:57:55;;;;;;;14.10;5.63;;;11.30;62.80;;;;;;5049806;28;20426;-64
2022/03/11 11:00:21;;;;;;;16.02;5.30;;;11.30;63.70;;;;;;5049666;28;20326;-64
2022/03/11 11:02:48;;;;;;;8.35;3.90;;;11.30;63.80;;;;;;5049915;28;20075;-64
2022/03/11 11:05:14;;;;;;;17.95;6.45;;;11.40;64.30;;;;;;5045693;28;20021;-64
2022/03/11 11:07:44;;;;;;;13.75;5.60;;;11.50;64.00;;;;;;5028106;28;20025;-64
2022/03/11 11:10:12;;;;;;;15.85;5.97;;;11.50;63.30;;;;;;5029627;28;20086;-64
2022/03/11 11:12:39;;;;;;;18.50;4.90;;;11.50;62.90;;;;;;5011717;28;20041;-64
2022/03/11 11:15:05;;;;;;;9.35;5.05;;;11.50;63.00;;;;;;5028840;28;20059;-65
2022/03/11 11:17:32;;;;;;;12.95;6.00;;;11.50;62.90;;;;;;5029657;28;20033;-64
2022/03/11 11:20:01;;;;;;;15.52;6.15;;;11.50;62.90;;;;;;5029396;28;20028;-64
2022/03/11 11:22:27;;;;;;;14.63;4.68;;;11.50;63.00;;;;;;5029725;28;20406;-64
2022/03/11 11:24:55;;;;;;;7.80;3.35;;;11.50;63.30;;;;;;5039427;28;20479;-64
2022/03/11 11:27:21;;;;;;;16.38;5.13;;;11.50;63.50;;;;;;5029294;28;20029;-65
2022/03/11 11:29:51;;;;;;;8.75;5.28;;;11.60;63.60;;;;;;5029119;28;20577;-65
2022/03/11 11:32:19;;;;;;;10.85;5.70;;;11.70;63.80;;;;;;5028583;28;20026;-64
2022/03/11 11:34:46;;;;;;;10.88;4.68;;;11.70;62.90;;;;;;5028454;28;20370;-65
2022/03/11 11:37:41;;;;;;;12.52;4.97;;;11.70;62.50;;;;;;5029336;28;20036;-64
2022/03/11 11:40:20;;;;;;;12.85;5.18;;;11.80;62.90;;;;;;4954493;28;20058;-64
2022/03/11 11:43:13;;;;;;;16.08;6.60;;;11.80;62.40;;;;;;4964587;28;20027;-67
2022/03/11 11:45:44;;;;;;;9.70;4.53;;;11.80;62.00;;;;;;4964309;28;20037;-65
2022/03/11 11:48:45;;;;;;;13.05;4.72;;;11.90;62.30;;;;;;4961222;28;20042;-64
2022/03/11 11:51:12;;;;;;;16.02;5.53;;;11.90;62.30;;;;;;4940205;29;20082;-64
2022/03/11 11:53:43;;;;;;;11.52;5.55;;;12.00;62.20;;;;;;4945830;29;20269;-64
2022/03/11 11:56:31;;;;;;;11.25;5.18;;;12.00;62.30;;;;;;4948262;29;20039;-64
2022/03/11 11:59:09;;;;;;;15.77;5.40;;;12.00;62.10;;;;;;4947923;29;20039;-64
2022/03/11 12:01:47;;;;;;;13.45;5.63;;;12.10;62.30;;;;;;4947498;29;20488;-64
2022/03/11 12:04:35;;;;;;;11.23;4.97;;;12.20;63.20;;;;;;4948034;29;20211;-64
2022/03/11 12:07:14;;;;;;;10.57;3.05;;;12.20;63.40;;;;;;4947419;29;20106;-64
2022/03/11 12:12:19;;;;;;;18.15;7.65;;;12.20;62.80;;;;;;4958129;28;20039;-64
2022/03/11 12:17:36;;;;;;;12.75;5.28;;;12.20;62.70;;;;;;4989232;28;20084;-64
2022/03/11 12:20:23;;;;;;;15.82;6.90;;;12.20;62.80;;;;;;4993522;28;20027;-64
2022/03/11 12:22:54;;;;;;;14.82;5.35;;;12.20;63.00;;;;;;5000294;28;20052;-64
2022/03/11 12:25:23;;;;;;;;;;;12.20;62.70;;;;;;5022597;28;20491;-64
2022/03/11 12:28:08;;;;;;;13.60;6.70;;;12.10;62.60;;;;;;4994913;28;19913;-64
2022/03/11 12:30:38;;;;;;;14.00;6.10;;;12.10;62.50;;;;;;5009766;28;20120;-64
2022/03/11 12:33:07;;;;;;;5.57;2.70;;;12.10;62.40;;;;;;5010802;28;20034;-65
2022/03/11 12:35:33;;;;;;;11.27;5.72;;;12.20;62.50;;;;;;5009404;28;20180;-65
2022/03/11 12:37:59;;;;;;;18.88;6.93;;;12.20;63.60;;;;;;5012133;28;20108;-66
2022/03/11 12:40:26;;;;;;;15.65;6.15;;;12.20;62.20;;;;;;5012303;28;20528;-64
2022/03/11 12:43:00;;;;;;;11.10;5.22;;;12.20;62.60;;;;;;5012445;28;20018;-65
2022/03/11 12:45:50;;;;;;;12.77;7.28;;;12.10;62.50;;;;;;5012087;28;20022;-66
2022/03/11 12:48:18;;;;;;;11.73;4.35;;;12.10;62.50;;;;;;5003241;28;20483;-64
2022/03/11 12:50:45;;;;;;;13.23;6.28;;;12.10;62.30;;;;;;5009130;28;20034;-64
2022/03/11 12:53:12;;;;;;;15.88;6.80;;;12.20;62.60;;;;;;5011854;28;20030;-65
2022/03/11 12:55:43;;;;;;;14.88;7.45;;;12.20;62.40;;;;;;5029884;28;20029;-64